KDSM/DSM METAR and TAF weather

Enter ICAO airport designator
Station Type Date Time Source
KDSM METAR 2020/08/11 00:54 UTC NOAA

KDSM 110054Z 34007KT 10SM FEW150 FEW300 24/17 A2994 RMK AO2 SLP129 T02390172


Station Type Date Time Source
KDSM Decoded METAR 2020/08/11 00:54 UTC NOAA

DES MOINES INTERNATIONAL, IA, United States (KDSM) 41-32N 93-40W 295M
Aug 10, 2020 - 08:54 PM EDT / 2020.08.11 0054 UTC
Wind: from the NNW (340 degrees) at 8 MPH (7 KT):0
Visibility: 10 mile(s):0
Sky conditions: mostly clear
Temperature: 75.0 F (23.9 C)
Dew Point: 63.0 F (17.2 C)
Relative Humidity: 66%
Pressure (altimeter): 29.94 in. Hg (1013 hPa)
ob: KDSM 110054Z 34007KT 10SM FEW150 FEW300 24/17 A2994 RMK AO2 SLP129 T02390172
cycle: 1

Station Type Date Time Source
KDSM TAF 2020/08/10 18:34 UTC NOAA

TAF KDSM 101732Z 1018/1118 01023G30KT 5SM -TSRA BR FEW040CB OVC100
FM101900 02014KT P6SM VCTS FEW040CB BKN100
FM102200 02009KT P6SM BKN200

Example: see airport list